Aérodrome :
LOGIN :

S'inscrire | Disclaimer

   EN    FR    IT 

 










Légende :    VFR   VFR Marginal   IFR   IFR Intensif   IFR Très Intensif
Visi : 
Plafond : 
>= 8 km
>= 3000ft
5 à 8 km
1000 à 3000 ft
1500m à 5 km
500 à 1000 ft
800 à 1500m
200 à 500 ft
< 800m
< 200 ft
Symboles :   Orages  Brouillard  Fortes neiges  Fortes précipitations  Vent > 20 kt
SIGMETs :   Divers  Orages  Givrage  Turbulence  Onde Orograph.  Cendres Volcan.






- Altitude de l'aérodrome : 137 ft


LIPS - Istrana AFB Treviso

DERNIER METAR :
  • 211155Z /////KT 9000 SCT010 BKN015 20/18 Q1023 RMK OVC VIS MIN 9000 WIND THR26 02010KT WIND THR08 05010KT WHT

METARs EXPIRÉS :
  • 211055Z /////KT 9000 SCT010 BKN015 19/18 Q1023 RMK OVC VIS MIN 9000 WIND THR26 02011KT WIND THR08 05012KT WHT
  • 210955Z /////KT 8000 SCT010 BKN015 19/18 Q1023 RMK OVC VIS MIN 8000 WIND THR26 01010KT WIND THR08 05010KT WHT

TAF TAF LIPS
Valide du 21 à 12h jusqu'au 21 à 21h UTC


211100Z 2112/2121 03005KT 8000 SCT015 BKN030
TEMPO 2112/2114 03010KT
BECMG 2117/2119 5000 BR BKN010



MET'MAP, la Météo Aéronautique d'un coup d'oeil ! - Copyright ORBIFLY Décembre 2007 - Disclaimer

ORBIFLY MET'MAP TEAM :

Programmation & Développement : Alexandra Zaïnal
Conception & Développement : Baudouin d'Aumeries
Co-Programmation & Développement : Marc-Olivier Méhu
Soutien technique & logistique : Manuel Goepfert

Contact : metmap@orbifly.com




SOURCES & CREDITS :

   NOAA